YHID

Horn Island Airport

Airport
ICAO code
YHID
IATA Code
HID
Summary
ICAO Region
APAC
ICAO Territory
Location

, Queensland

Serving
Horn Island
Elevation
43 ft
Coordinates
10° 35' 11" S , 142° 17' 24" E
Metar
YHID 201930Z AUTO 16006KT 9999 // NCD 24/21 Q1012 RF00.0/000.0

Airport map

Aerial View

SKYbrary Partners:

Safety knowledge contributed by: